sensor_id;sensor_type;location;lat;lon;timestamp;temperature;humidity
39957;DHT22;48483;44.640;7.494;2022-10-04T00:02:18;15.90;99.90
39957;DHT22;48483;44.640;7.494;2022-10-04T00:04:51;15.90;99.90
39957;DHT22;48483;44.640;7.494;2022-10-04T00:07:23;15.80;99.90
39957;DHT22;48483;44.640;7.494;2022-10-04T00:09:54;15.70;99.90
39957;DHT22;48483;44.640;7.494;2022-10-04T00:12:24;15.70;99.90
39957;DHT22;48483;44.640;7.494;2022-10-04T00:14:56;15.70;99.90
39957;DHT22;48483;44.640;7.494;2022-10-04T00:17:25;15.70;99.90
39957;DHT22;48483;44.640;7.494;2022-10-04T00:19:54;15.80;99.90
39957;DHT22;48483;44.640;7.494;2022-10-04T00:22:23;15.90;99.90
39957;DHT22;48483;44.640;7.494;2022-10-04T00:25:20;16.00;99.90
39957;DHT22;48483;44.640;7.494;2022-10-04T00:28:26;16.10;99.90
39957;DHT22;48483;44.640;7.494;2022-10-04T00:31:19;16.10;99.90
39957;DHT22;48483;44.640;7.494;2022-10-04T00:33:49;16.20;99.90
39957;DHT22;48483;44.640;7.494;2022-10-04T00:36:44;16.30;99.90
39957;DHT22;48483;44.640;7.494;2022-10-04T00:39:36;16.30;99.90
39957;DHT22;48483;44.640;7.494;2022-10-04T00:42:30;16.30;99.90
39957;DHT22;48483;44.640;7.494;2022-10-04T00:45:02;16.40;99.90
39957;DHT22;48483;44.640;7.494;2022-10-04T00:47:37;16.40;99.90
39957;DHT22;48483;44.640;7.494;2022-10-04T00:50:12;16.50;99.90
39957;DHT22;48483;44.640;7.494;2022-10-04T00:52:44;16.50;99.90
39957;DHT22;48483;44.640;7.494;2022-10-04T00:55:21;16.50;99.90
39957;DHT22;48483;44.640;7.494;2022-10-04T00:57:53;16.50;99.90
39957;DHT22;48483;44.640;7.494;2022-10-04T01:00:23;16.60;99.90
39957;DHT22;48483;44.640;7.494;2022-10-04T01:02:57;16.60;99.90
39957;DHT22;48483;44.640;7.494;2022-10-04T01:05:30;16.60;99.90
39957;DHT22;48483;44.640;7.494;2022-10-04T01:08:03;16.60;99.90
39957;DHT22;48483;44.640;7.494;2022-10-04T01:10:35;16.60;99.90
39957;DHT22;48483;44.640;7.494;2022-10-04T01:13:08;16.60;99.90
39957;DHT22;48483;44.640;7.494;2022-10-04T01:15:41;16.60;99.90
39957;DHT22;48483;44.640;7.494;2022-10-04T01:18:14;16.60;99.90
39957;DHT22;48483;44.640;7.494;2022-10-04T01:20:51;16.60;99.90
39957;DHT22;48483;44.640;7.494;2022-10-04T01:23:40;16.60;99.90
39957;DHT22;48483;44.640;7.494;2022-10-04T01:26:37;16.70;99.90
39957;DHT22;48483;44.640;7.494;2022-10-04T01:29:08;16.60;99.90
39957;DHT22;48483;44.640;7.494;2022-10-04T01:31:35;16.70;99.90
39957;DHT22;48483;44.640;7.494;2022-10-04T01:34:03;16.70;99.90
39957;DHT22;48483;44.640;7.494;2022-10-04T01:36:34;16.70;99.90
39957;DHT22;48483;44.640;7.494;2022-10-04T01:39:03;16.70;99.90
39957;DHT22;48483;44.640;7.494;2022-10-04T01:41:37;16.70;99.90
39957;DHT22;48483;44.640;7.494;2022-10-04T01:44:08;16.70;99.90
39957;DHT22;48483;44.640;7.494;2022-10-04T01:46:36;16.70;99.90
39957;DHT22;48483;44.640;7.494;2022-10-04T01:49:09;16.70;99.90
39957;DHT22;48483;44.640;7.494;2022-10-04T01:51:37;16.60;99.90
39957;DHT22;48483;44.640;7.494;2022-10-04T01:54:10;16.70;99.90
39957;DHT22;48483;44.640;7.494;2022-10-04T01:56:42;16.70;99.90
39957;DHT22;48483;44.640;7.494;2022-10-04T01:59:12;16.70;99.90
39957;DHT22;48483;44.640;7.494;2022-10-04T02:01:47;16.70;99.90
39957;DHT22;48483;44.640;7.494;2022-10-04T02:04:18;16.70;99.90
39957;DHT22;48483;44.640;7.494;2022-10-04T02:06:48;16.70;99.90
39957;DHT22;48483;44.640;7.494;2022-10-04T02:09:24;16.70;99.90
39957;DHT22;48483;44.640;7.494;2022-10-04T02:11:52;16.70;99.90
39957;DHT22;48483;44.640;7.494;2022-10-04T02:14:22;16.70;99.90
39957;DHT22;48483;44.640;7.494;2022-10-04T02:16:50;16.70;99.90
39957;DHT22;48483;44.640;7.494;2022-10-04T02:19:20;16.70;99.90
39957;DHT22;48483;44.640;7.494;2022-10-04T02:21:48;16.70;99.90
39957;DHT22;48483;44.640;7.494;2022-10-04T02:24:16;16.70;99.90
39957;DHT22;48483;44.640;7.494;2022-10-04T02:26:49;16.70;99.90
39957;DHT22;48483;44.640;7.494;2022-10-04T02:29:16;16.70;99.90
39957;DHT22;48483;44.640;7.494;2022-10-04T02:31:44;16.70;99.90
39957;DHT22;48483;44.640;7.494;2022-10-04T02:34:29;16.70;99.90
39957;DHT22;48483;44.640;7.494;2022-10-04T02:36:57;16.70;99.90
39957;DHT22;48483;44.640;7.494;2022-10-04T02:39:30;16.70;99.90
39957;DHT22;48483;44.640;7.494;2022-10-04T02:42:02;16.70;99.90
39957;DHT22;48483;44.640;7.494;2022-10-04T02:44:32;16.70;99.90
39957;DHT22;48483;44.640;7.494;2022-10-04T02:47:06;16.70;99.90
39957;DHT22;48483;44.640;7.494;2022-10-04T02:49:36;16.70;99.90
39957;DHT22;48483;44.640;7.494;2022-10-04T02:52:06;16.70;99.90
39957;DHT22;48483;44.640;7.494;2022-10-04T02:54:38;16.70;99.90
39957;DHT22;48483;44.640;7.494;2022-10-04T02:57:14;16.70;99.90
39957;DHT22;48483;44.640;7.494;2022-10-04T02:59:42;16.70;99.90
39957;DHT22;48483;44.640;7.494;2022-10-04T03:02:21;16.70;99.90
39957;DHT22;48483;44.640;7.494;2022-10-04T03:04:49;16.70;99.90
39957;DHT22;48483;44.640;7.494;2022-10-04T03:07:17;16.70;99.90
39957;DHT22;48483;44.640;7.494;2022-10-04T03:09:44;16.70;99.90
39957;DHT22;48483;44.640;7.494;2022-10-04T03:12:13;16.70;99.90
39957;DHT22;48483;44.640;7.494;2022-10-04T03:14:41;16.70;99.90
39957;DHT22;48483;44.640;7.494;2022-10-04T03:17:08;16.60;99.90
39957;DHT22;48483;44.640;7.494;2022-10-04T03:19:35;16.60;99.90
39957;DHT22;48483;44.640;7.494;2022-10-04T03:22:07;16.60;99.90
39957;DHT22;48483;44.640;7.494;2022-10-04T03:24:38;16.60;99.90
39957;DHT22;48483;44.640;7.494;2022-10-04T03:27:06;16.60;99.90
39957;DHT22;48483;44.640;7.494;2022-10-04T03:29:39;16.60;99.90
39957;DHT22;48483;44.640;7.494;2022-10-04T03:32:12;16.60;99.90
39957;DHT22;48483;44.640;7.494;2022-10-04T03:34:41;16.60;99.90
39957;DHT22;48483;44.640;7.494;2022-10-04T03:37:15;16.60;99.90
39957;DHT22;48483;44.640;7.494;2022-10-04T03:39:46;16.60;99.90
39957;DHT22;48483;44.640;7.494;2022-10-04T03:42:15;16.60;99.90
39957;DHT22;48483;44.640;7.494;2022-10-04T03:44:45;16.60;99.90
39957;DHT22;48483;44.640;7.494;2022-10-04T03:47:15;16.60;99.90
39957;DHT22;48483;44.640;7.494;2022-10-04T03:49:43;16.60;99.90
39957;DHT22;48483;44.640;7.494;2022-10-04T03:52:17;16.60;99.90
39957;DHT22;48483;44.640;7.494;2022-10-04T03:54:48;16.60;99.90
39957;DHT22;48483;44.640;7.494;2022-10-04T03:57:17;16.60;99.90
39957;DHT22;48483;44.640;7.494;2022-10-04T03:59:46;16.60;99.90
39957;DHT22;48483;44.640;7.494;2022-10-04T04:02:18;16.50;99.90
39957;DHT22;48483;44.640;7.494;2022-10-04T04:04:52;16.60;99.90
39957;DHT22;48483;44.640;7.494;2022-10-04T04:07:26;16.50;99.90
39957;DHT22;48483;44.640;7.494;2022-10-04T04:09:55;16.50;99.90
39957;DHT22;48483;44.640;7.494;2022-10-04T04:12:31;16.50;99.90
39957;DHT22;48483;44.640;7.494;2022-10-04T04:15:02;16.50;99.90
39957;DHT22;48483;44.640;7.494;2022-10-04T04:17:38;16.50;99.90
39957;DHT22;48483;44.640;7.494;2022-10-04T04:20:20;16.50;99.90
39957;DHT22;48483;44.640;7.494;2022-10-04T04:22:55;16.50;99.90
39957;DHT22;48483;44.640;7.494;2022-10-04T04:25:25;16.50;99.90
39957;DHT22;48483;44.640;7.494;2022-10-04T04:28:00;16.50;99.90
39957;DHT22;48483;44.640;7.494;2022-10-04T04:30:30;16.50;99.90
39957;DHT22;48483;44.640;7.494;2022-10-04T04:33:08;16.50;99.90
39957;DHT22;48483;44.640;7.494;2022-10-04T04:35:37;16.50;99.90
39957;DHT22;48483;44.640;7.494;2022-10-04T04:38:12;16.50;99.90
39957;DHT22;48483;44.640;7.494;2022-10-04T04:40:39;16.50;99.90
39957;DHT22;48483;44.640;7.494;2022-10-04T04:43:13;16.50;99.90
39957;DHT22;48483;44.640;7.494;2022-10-04T04:45:44;16.50;99.90
39957;DHT22;48483;44.640;7.494;2022-10-04T04:48:14;16.50;99.90
39957;DHT22;48483;44.640;7.494;2022-10-04T04:50:41;16.50;99.90
39957;DHT22;48483;44.640;7.494;2022-10-04T04:53:14;16.50;99.90
39957;DHT22;48483;44.640;7.494;2022-10-04T04:55:42;16.40;99.90
39957;DHT22;48483;44.640;7.494;2022-10-04T04:58:15;16.40;99.90
39957;DHT22;48483;44.640;7.494;2022-10-04T05:00:53;16.40;99.90
39957;DHT22;48483;44.640;7.494;2022-10-04T05:03:20;16.40;99.90
39957;DHT22;48483;44.640;7.494;2022-10-04T05:05:47;16.40;99.90
39957;DHT22;48483;44.640;7.494;2022-10-04T05:08:17;16.40;99.90
39957;DHT22;48483;44.640;7.494;2022-10-04T05:10:48;16.40;99.90
39957;DHT22;48483;44.640;7.494;2022-10-04T05:13:16;16.40;99.90
39957;DHT22;48483;44.640;7.494;2022-10-04T05:15:43;16.40;99.90
39957;DHT22;48483;44.640;7.494;2022-10-04T05:18:25;16.40;99.90
39957;DHT22;48483;44.640;7.494;2022-10-04T05:20:55;16.40;99.90
39957;DHT22;48483;44.640;7.494;2022-10-04T05:23:23;16.40;99.90
39957;DHT22;48483;44.640;7.494;2022-10-04T05:25:50;16.40;99.90
39957;DHT22;48483;44.640;7.494;2022-10-04T05:28:17;16.40;99.90
39957;DHT22;48483;44.640;7.494;2022-10-04T05:30:52;16.40;99.90
39957;DHT22;48483;44.640;7.494;2022-10-04T05:33:35;16.40;99.90
39957;DHT22;48483;44.640;7.494;2022-10-04T05:36:29;16.40;99.90
39957;DHT22;48483;44.640;7.494;2022-10-04T05:39:01;16.40;99.90
39957;DHT22;48483;44.640;7.494;2022-10-04T05:41:36;16.30;99.90
39957;DHT22;48483;44.640;7.494;2022-10-04T05:44:18;16.30;99.90
39957;DHT22;48483;44.640;7.494;2022-10-04T05:46:49;16.30;99.90
39957;DHT22;48483;44.640;7.494;2022-10-04T05:49:18;16.30;99.90
39957;DHT22;48483;44.640;7.494;2022-10-04T05:51:51;16.30;99.90
39957;DHT22;48483;44.640;7.494;2022-10-04T05:54:21;16.30;99.90
39957;DHT22;48483;44.640;7.494;2022-10-04T05:57:19;16.20;99.90
39957;DHT22;48483;44.640;7.494;2022-10-04T06:00:00;16.20;99.90
39957;DHT22;48483;44.640;7.494;2022-10-04T06:03:15;16.20;99.90
39957;DHT22;48483;44.640;7.494;2022-10-04T06:05:50;16.20;99.90
39957;DHT22;48483;44.640;7.494;2022-10-04T06:08:27;16.20;99.90
39957;DHT22;48483;44.640;7.494;2022-10-04T06:11:11;16.30;99.90
39957;DHT22;48483;44.640;7.494;2022-10-04T06:13:53;16.30;99.90
39957;DHT22;48483;44.640;7.494;2022-10-04T06:16:32;16.30;99.90
39957;DHT22;48483;44.640;7.494;2022-10-04T06:19:16;16.30;99.90
39957;DHT22;48483;44.640;7.494;2022-10-04T06:21:59;16.30;99.90
39957;DHT22;48483;44.640;7.494;2022-10-04T06:24:29;16.30;99.90
39957;DHT22;48483;44.640;7.494;2022-10-04T06:27:00;16.30;99.90
39957;DHT22;48483;44.640;7.494;2022-10-04T06:29:30;16.30;99.90
39957;DHT22;48483;44.640;7.494;2022-10-04T06:35:21;16.40;99.90
39957;DHT22;48483;44.640;7.494;2022-10-04T06:38:15;16.40;99.90
39957;DHT22;48483;44.640;7.494;2022-10-04T06:44:01;16.50;99.90
39957;DHT22;48483;44.640;7.494;2022-10-04T06:46:39;16.50;99.90
39957;DHT22;48483;44.640;7.494;2022-10-04T06:49:31;16.50;99.90
39957;DHT22;48483;44.640;7.494;2022-10-04T06:52:12;16.50;99.90
39957;DHT22;48483;44.640;7.494;2022-10-04T06:55:09;16.60;99.90
39957;DHT22;48483;44.640;7.494;2022-10-04T06:57:53;16.60;99.90
39957;DHT22;48483;44.640;7.494;2022-10-04T07:00:26;16.60;99.90
39957;DHT22;48483;44.640;7.494;2022-10-04T07:02:57;16.60;99.90
39957;DHT22;48483;44.640;7.494;2022-10-04T07:05:29;16.70;99.90
39957;DHT22;48483;44.640;7.494;2022-10-04T07:08:05;16.70;99.90
39957;DHT22;48483;44.640;7.494;2022-10-04T07:10:38;16.70;99.90
39957;DHT22;48483;44.640;7.494;2022-10-04T07:13:13;16.70;99.90
39957;DHT22;48483;44.640;7.494;2022-10-04T07:15:46;16.80;99.90
39957;DHT22;48483;44.640;7.494;2022-10-04T07:18:19;16.80;99.90
39957;DHT22;48483;44.640;7.494;2022-10-04T07:20:50;16.80;99.90
39957;DHT22;48483;44.640;7.494;2022-10-04T07:23:22;16.80;99.90
39957;DHT22;48483;44.640;7.494;2022-10-04T07:25:54;16.80;99.90
39957;DHT22;48483;44.640;7.494;2022-10-04T07:28:26;16.90;99.90
39957;DHT22;48483;44.640;7.494;2022-10-04T07:31:20;16.90;99.90
39957;DHT22;48483;44.640;7.494;2022-10-04T07:33:52;16.90;99.90
39957;DHT22;48483;44.640;7.494;2022-10-04T07:36:21;16.90;99.90
39957;DHT22;48483;44.640;7.494;2022-10-04T07:38:53;16.90;99.90
39957;DHT22;48483;44.640;7.494;2022-10-04T07:41:27;17.00;99.90
39957;DHT22;48483;44.640;7.494;2022-10-04T07:43:58;17.00;99.90
39957;DHT22;48483;44.640;7.494;2022-10-04T07:46:37;17.10;99.90
39957;DHT22;48483;44.640;7.494;2022-10-04T07:49:12;17.20;99.90
39957;DHT22;48483;44.640;7.494;2022-10-04T07:51:47;17.30;99.90
39957;DHT22;48483;44.640;7.494;2022-10-04T07:54:20;17.30;99.90
39957;DHT22;48483;44.640;7.494;2022-10-04T07:56:54;17.30;99.90
39957;DHT22;48483;44.640;7.494;2022-10-04T07:59:34;17.30;99.90
39957;DHT22;48483;44.640;7.494;2022-10-04T08:02:16;17.30;99.90
39957;DHT22;48483;44.640;7.494;2022-10-04T08:04:51;17.30;99.90
39957;DHT22;48483;44.640;7.494;2022-10-04T08:07:24;17.30;99.90
39957;DHT22;48483;44.640;7.494;2022-10-04T08:09:59;17.30;99.90
39957;DHT22;48483;44.640;7.494;2022-10-04T08:12:44;17.40;99.90
39957;DHT22;48483;44.640;7.494;2022-10-04T08:15:33;17.40;99.90
39957;DHT22;48483;44.640;7.494;2022-10-04T08:18:06;17.40;99.90
39957;DHT22;48483;44.640;7.494;2022-10-04T08:20:40;17.40;99.90
39957;DHT22;48483;44.640;7.494;2022-10-04T08:23:23;17.40;99.90
39957;DHT22;48483;44.640;7.494;2022-10-04T08:26:02;17.50;99.90
39957;DHT22;48483;44.640;7.494;2022-10-04T08:28:42;17.50;99.90
39957;DHT22;48483;44.640;7.494;2022-10-04T08:31:59;17.50;99.90
39957;DHT22;48483;44.640;7.494;2022-10-04T08:34:40;17.60;99.90
39957;DHT22;48483;44.640;7.494;2022-10-04T08:37:16;17.60;99.90
39957;DHT22;48483;44.640;7.494;2022-10-04T08:39:57;17.70;99.90
39957;DHT22;48483;44.640;7.494;2022-10-04T08:43:06;17.70;99.90
39957;DHT22;48483;44.640;7.494;2022-10-04T08:46:08;17.70;99.90
39957;DHT22;48483;44.640;7.494;2022-10-04T08:49:07;17.70;99.90
39957;DHT22;48483;44.640;7.494;2022-10-04T08:52:07;17.80;99.90
39957;DHT22;48483;44.640;7.494;2022-10-04T08:57:58;17.80;99.90
39957;DHT22;48483;44.640;7.494;2022-10-04T09:00:38;17.80;99.90
39957;DHT22;48483;44.640;7.494;2022-10-04T09:03:39;17.90;99.90
39957;DHT22;48483;44.640;7.494;2022-10-04T09:06:33;17.90;99.90
39957;DHT22;48483;44.640;7.494;2022-10-04T09:12:26;18.00;99.90
39957;DHT22;48483;44.640;7.494;2022-10-04T09:15:11;18.10;99.90
39957;DHT22;48483;44.640;7.494;2022-10-04T09:17:52;18.10;99.90
39957;DHT22;48483;44.640;7.494;2022-10-04T09:20:29;18.20;99.90
39957;DHT22;48483;44.640;7.494;2022-10-04T09:23:13;18.20;99.90
39957;DHT22;48483;44.640;7.494;2022-10-04T09:25:48;18.20;99.90
39957;DHT22;48483;44.640;7.494;2022-10-04T09:28:33;18.30;99.90
39957;DHT22;48483;44.640;7.494;2022-10-04T09:34:22;18.50;99.90
39957;DHT22;48483;44.640;7.494;2022-10-04T09:37:05;18.60;99.90
39957;DHT22;48483;44.640;7.494;2022-10-04T09:39:45;18.70;99.90
39957;DHT22;48483;44.640;7.494;2022-10-04T09:42:35;18.60;99.90
39957;DHT22;48483;44.640;7.494;2022-10-04T09:45:32;18.60;99.90
39957;DHT22;48483;44.640;7.494;2022-10-04T09:48:31;18.60;99.90
39957;DHT22;48483;44.640;7.494;2022-10-04T09:51:30;18.70;99.90
39957;DHT22;48483;44.640;7.494;2022-10-04T09:54:28;18.70;99.90
39957;DHT22;48483;44.640;7.494;2022-10-04T09:57:15;18.80;99.90
39957;DHT22;48483;44.640;7.494;2022-10-04T10:00:12;18.80;99.90
39957;DHT22;48483;44.640;7.494;2022-10-04T10:06:04;18.90;99.90
39957;DHT22;48483;44.640;7.494;2022-10-04T10:08:43;18.90;99.90
39957;DHT22;48483;44.640;7.494;2022-10-04T10:11:17;19.00;99.90
39957;DHT22;48483;44.640;7.494;2022-10-04T10:14:40;19.00;99.90
39957;DHT22;48483;44.640;7.494;2022-10-04T10:17:18;19.10;99.90
39957;DHT22;48483;44.640;7.494;2022-10-04T10:20:17;19.10;99.90
39957;DHT22;48483;44.640;7.494;2022-10-04T10:26:18;19.30;99.90
39957;DHT22;48483;44.640;7.494;2022-10-04T10:29:17;19.40;99.90
39957;DHT22;48483;44.640;7.494;2022-10-04T10:32:06;19.30;99.90
39957;DHT22;48483;44.640;7.494;2022-10-04T10:34:46;19.30;99.90
39957;DHT22;48483;44.640;7.494;2022-10-04T10:37:28;19.40;99.90
39957;DHT22;48483;44.640;7.494;2022-10-04T10:40:15;19.50;99.90
39957;DHT22;48483;44.640;7.494;2022-10-04T10:43:15;19.50;99.90
39957;DHT22;48483;44.640;7.494;2022-10-04T10:46:00;19.50;99.90
39957;DHT22;48483;44.640;7.494;2022-10-04T10:48:48;19.50;99.90
39957;DHT22;48483;44.640;7.494;2022-10-04T10:51:24;19.60;99.90
39957;DHT22;48483;44.640;7.494;2022-10-04T10:54:20;19.70;99.90
39957;DHT22;48483;44.640;7.494;2022-10-04T10:57:03;19.70;99.90
39957;DHT22;48483;44.640;7.494;2022-10-04T11:00:05;19.80;99.90
39957;DHT22;48483;44.640;7.494;2022-10-04T11:09:08;20.00;99.90
39957;DHT22;48483;44.640;7.494;2022-10-04T11:11:53;20.10;99.90
39957;DHT22;48483;44.640;7.494;2022-10-04T11:14:43;20.10;99.90
39957;DHT22;48483;44.640;7.494;2022-10-04T11:17:28;20.00;99.90
39957;DHT22;48483;44.640;7.494;2022-10-04T11:20:33;20.00;99.90
39957;DHT22;48483;44.640;7.494;2022-10-04T11:23:36;19.90;99.90
39957;DHT22;48483;44.640;7.494;2022-10-04T11:29:52;20.00;99.90
39957;DHT22;48483;44.640;7.494;2022-10-04T11:36:03;20.10;99.90
39957;DHT22;48483;44.640;7.494;2022-10-04T11:38:52;20.10;99.90
39957;DHT22;48483;44.640;7.494;2022-10-04T11:41:33;20.10;99.90
39957;DHT22;48483;44.640;7.494;2022-10-04T11:47:09;20.10;99.90
39957;DHT22;48483;44.640;7.494;2022-10-04T11:49:57;20.00;99.90
39957;DHT22;48483;44.640;7.494;2022-10-04T11:56:06;20.20;99.90
39957;DHT22;48483;44.640;7.494;2022-10-04T11:58:51;20.20;99.90
39957;DHT22;48483;44.640;7.494;2022-10-04T12:01:38;20.30;99.90
39957;DHT22;48483;44.640;7.494;2022-10-04T12:07:37;20.30;99.90
39957;DHT22;48483;44.640;7.494;2022-10-04T12:10:19;20.40;99.90
39957;DHT22;48483;44.640;7.494;2022-10-04T12:13:11;20.40;99.90
39957;DHT22;48483;44.640;7.494;2022-10-04T12:16:07;20.40;99.90
39957;DHT22;48483;44.640;7.494;2022-10-04T12:21:52;20.50;99.90
39957;DHT22;48483;44.640;7.494;2022-10-04T12:27:32;20.70;99.90
39957;DHT22;48483;44.640;7.494;2022-10-04T12:30:24;20.70;99.90
39957;DHT22;48483;44.640;7.494;2022-10-04T12:33:03;20.70;99.90
39957;DHT22;48483;44.640;7.494;2022-10-04T12:35:44;20.70;99.90
39957;DHT22;48483;44.640;7.494;2022-10-04T12:38:33;20.80;99.90
39957;DHT22;48483;44.640;7.494;2022-10-04T12:41:10;20.80;99.90
39957;DHT22;48483;44.640;7.494;2022-10-04T12:43:53;20.70;99.90
39957;DHT22;48483;44.640;7.494;2022-10-04T12:46:33;20.70;99.90
39957;DHT22;48483;44.640;7.494;2022-10-04T12:49:14;20.60;99.90
39957;DHT22;48483;44.640;7.494;2022-10-04T12:51:51;20.60;99.90
39957;DHT22;48483;44.640;7.494;2022-10-04T12:54:31;20.60;99.90
39957;DHT22;48483;44.640;7.494;2022-10-04T13:00:16;20.60;99.90
39957;DHT22;48483;44.640;7.494;2022-10-04T13:03:03;20.50;99.90
39957;DHT22;48483;44.640;7.494;2022-10-04T13:05:41;20.50;99.90
39957;DHT22;48483;44.640;7.494;2022-10-04T13:08:21;20.50;99.90
39957;DHT22;48483;44.640;7.494;2022-10-04T13:11:03;20.50;99.90
39957;DHT22;48483;44.640;7.494;2022-10-04T13:14:05;20.50;99.90
39957;DHT22;48483;44.640;7.494;2022-10-04T13:16:48;20.50;99.90
39957;DHT22;48483;44.640;7.494;2022-10-04T13:19:21;20.50;99.90
39957;DHT22;48483;44.640;7.494;2022-10-04T13:22:04;20.60;99.90
39957;DHT22;48483;44.640;7.494;2022-10-04T13:24:42;20.70;99.90
39957;DHT22;48483;44.640;7.494;2022-10-04T13:27:32;20.70;99.90
39957;DHT22;48483;44.640;7.494;2022-10-04T13:30:06;20.80;99.90
39957;DHT22;48483;44.640;7.494;2022-10-04T13:32:48;20.90;99.90
39957;DHT22;48483;44.640;7.494;2022-10-04T13:35:21;20.90;99.90
39957;DHT22;48483;44.640;7.494;2022-10-04T13:38:08;20.90;99.90
39957;DHT22;48483;44.640;7.494;2022-10-04T13:40:49;21.00;99.90
39957;DHT22;48483;44.640;7.494;2022-10-04T13:43:50;21.00;99.90
39957;DHT22;48483;44.640;7.494;2022-10-04T13:46:26;21.00;99.90
39957;DHT22;48483;44.640;7.494;2022-10-04T13:49:17;21.00;99.90
39957;DHT22;48483;44.640;7.494;2022-10-04T13:51:53;20.90;99.90
39957;DHT22;48483;44.640;7.494;2022-10-04T13:54:51;20.90;99.90
39957;DHT22;48483;44.640;7.494;2022-10-04T13:57:44;20.80;99.90
39957;DHT22;48483;44.640;7.494;2022-10-04T14:00:19;20.80;99.90
39957;DHT22;48483;44.640;7.494;2022-10-04T14:03:04;20.80;99.90
39957;DHT22;48483;44.640;7.494;2022-10-04T14:08:54;20.70;99.90
39957;DHT22;48483;44.640;7.494;2022-10-04T14:12:06;20.60;99.90
39957;DHT22;48483;44.640;7.494;2022-10-04T14:15:04;20.60;99.90
39957;DHT22;48483;44.640;7.494;2022-10-04T14:18:19;20.60;99.90
39957;DHT22;48483;44.640;7.494;2022-10-04T14:24:22;20.50;99.90
39957;DHT22;48483;44.640;7.494;2022-10-04T14:27:21;20.50;99.90
39957;DHT22;48483;44.640;7.494;2022-10-04T14:30:13;20.50;99.90
39957;DHT22;48483;44.640;7.494;2022-10-04T14:35:56;20.50;99.90
39957;DHT22;48483;44.640;7.494;2022-10-04T14:38:47;20.50;99.90
39957;DHT22;48483;44.640;7.494;2022-10-04T14:42:03;20.50;99.90
39957;DHT22;48483;44.640;7.494;2022-10-04T14:47:37;20.40;99.90
39957;DHT22;48483;44.640;7.494;2022-10-04T14:50:20;20.40;99.90
39957;DHT22;48483;44.640;7.494;2022-10-04T14:52:51;20.40;99.90
39957;DHT22;48483;44.640;7.494;2022-10-04T14:55:45;20.40;99.90
39957;DHT22;48483;44.640;7.494;2022-10-04T14:58:18;20.30;99.90
39957;DHT22;48483;44.640;7.494;2022-10-04T15:01:01;20.30;99.90
39957;DHT22;48483;44.640;7.494;2022-10-04T15:03:35;20.30;99.90
39957;DHT22;48483;44.640;7.494;2022-10-04T15:06:21;20.30;99.90
39957;DHT22;48483;44.640;7.494;2022-10-04T15:09:11;20.30;99.90
39957;DHT22;48483;44.640;7.494;2022-10-04T15:11:43;20.20;99.90
39957;DHT22;48483;44.640;7.494;2022-10-04T15:14:27;20.20;99.90
39957;DHT22;48483;44.640;7.494;2022-10-04T15:17:04;20.20;99.90
39957;DHT22;48483;44.640;7.494;2022-10-04T15:22:39;20.20;99.90
39957;DHT22;48483;44.640;7.494;2022-10-04T15:25:40;20.10;99.90
39957;DHT22;48483;44.640;7.494;2022-10-04T15:28:12;20.10;99.90
39957;DHT22;48483;44.640;7.494;2022-10-04T15:30:49;20.10;99.90
39957;DHT22;48483;44.640;7.494;2022-10-04T15:33:31;20.20;99.90
39957;DHT22;48483;44.640;7.494;2022-10-04T15:36:22;20.10;99.90
39957;DHT22;48483;44.640;7.494;2022-10-04T15:38:52;20.10;99.90
39957;DHT22;48483;44.640;7.494;2022-10-04T15:41:27;20.10;99.90
39957;DHT22;48483;44.640;7.494;2022-10-04T15:44:28;20.10;99.90
39957;DHT22;48483;44.640;7.494;2022-10-04T15:47:08;20.10;99.90
39957;DHT22;48483;44.640;7.494;2022-10-04T15:49:52;20.10;99.90
39957;DHT22;48483;44.640;7.494;2022-10-04T15:52:58;20.00;99.90
39957;DHT22;48483;44.640;7.494;2022-10-04T15:55:47;20.00;99.90
39957;DHT22;48483;44.640;7.494;2022-10-04T15:58:27;20.00;99.90
39957;DHT22;48483;44.640;7.494;2022-10-04T16:01:11;20.00;99.90
39957;DHT22;48483;44.640;7.494;2022-10-04T16:03:48;19.90;99.90
39957;DHT22;48483;44.640;7.494;2022-10-04T16:06:22;19.90;99.90
39957;DHT22;48483;44.640;7.494;2022-10-04T16:09:20;19.90;99.90
39957;DHT22;48483;44.640;7.494;2022-10-04T16:12:12;19.80;99.90
39957;DHT22;48483;44.640;7.494;2022-10-04T16:15:08;19.80;99.90
39957;DHT22;48483;44.640;7.494;2022-10-04T16:17:55;19.80;99.90
39957;DHT22;48483;44.640;7.494;2022-10-04T16:23:41;19.70;99.90
39957;DHT22;48483;44.640;7.494;2022-10-04T16:26:11;19.70;99.90
39957;DHT22;48483;44.640;7.494;2022-10-04T16:28:53;19.70;99.90
39957;DHT22;48483;44.640;7.494;2022-10-04T16:31:50;19.60;99.90
39957;DHT22;48483;44.640;7.494;2022-10-04T16:34:43;19.60;99.90
39957;DHT22;48483;44.640;7.494;2022-10-04T16:37:25;19.60;99.90
39957;DHT22;48483;44.640;7.494;2022-10-04T16:39:56;19.50;99.90
39957;DHT22;48483;44.640;7.494;2022-10-04T16:45:36;19.40;99.90
39957;DHT22;48483;44.640;7.494;2022-10-04T16:48:09;19.40;99.90
39957;DHT22;48483;44.640;7.494;2022-10-04T16:50:55;19.40;99.90
39957;DHT22;48483;44.640;7.494;2022-10-04T16:53:31;19.40;99.90
39957;DHT22;48483;44.640;7.494;2022-10-04T16:56:09;19.40;99.90
39957;DHT22;48483;44.640;7.494;2022-10-04T16:58:55;19.30;99.90
39957;DHT22;48483;44.640;7.494;2022-10-04T17:04:50;19.20;99.90
39957;DHT22;48483;44.640;7.494;2022-10-04T17:07:29;19.20;99.90
39957;DHT22;48483;44.640;7.494;2022-10-04T17:10:15;19.20;99.90
39957;DHT22;48483;44.640;7.494;2022-10-04T17:12:50;19.20;99.90
39957;DHT22;48483;44.640;7.494;2022-10-04T17:15:37;19.20;99.90
39957;DHT22;48483;44.640;7.494;2022-10-04T17:18:14;19.10;99.90
39957;DHT22;48483;44.640;7.494;2022-10-04T17:20:53;19.10;99.90
39957;DHT22;48483;44.640;7.494;2022-10-04T17:23:41;19.10;99.90
39957;DHT22;48483;44.640;7.494;2022-10-04T17:26:23;19.10;99.90
39957;DHT22;48483;44.640;7.494;2022-10-04T17:28:55;19.00;99.90
39957;DHT22;48483;44.640;7.494;2022-10-04T17:31:27;19.00;99.90
39957;DHT22;48483;44.640;7.494;2022-10-04T17:34:02;19.00;99.90
39957;DHT22;48483;44.640;7.494;2022-10-04T17:36:37;18.90;99.90
39957;DHT22;48483;44.640;7.494;2022-10-04T17:39:17;18.90;99.90
39957;DHT22;48483;44.640;7.494;2022-10-04T17:41:56;18.90;99.90
39957;DHT22;48483;44.640;7.494;2022-10-04T17:44:48;18.80;99.90
39957;DHT22;48483;44.640;7.494;2022-10-04T17:47:21;18.80;99.90
39957;DHT22;48483;44.640;7.494;2022-10-04T17:49:57;18.80;99.90
39957;DHT22;48483;44.640;7.494;2022-10-04T17:52:52;18.80;99.90
39957;DHT22;48483;44.640;7.494;2022-10-04T17:55:45;18.70;99.90
39957;DHT22;48483;44.640;7.494;2022-10-04T17:58:16;18.70;99.90
39957;DHT22;48483;44.640;7.494;2022-10-04T18:00:52;18.70;99.90
39957;DHT22;48483;44.640;7.494;2022-10-04T18:03:24;18.70;99.90
39957;DHT22;48483;44.640;7.494;2022-10-04T18:05:54;18.60;99.90
39957;DHT22;48483;44.640;7.494;2022-10-04T18:08:37;18.60;99.90